Queen Of Coquitlam — CZ8058 — position and weather

sailwx.info

Track history (hours):
 
Tides and Currents Weather Stations Pressure Air Temp Water Temp Dewpoint Dewpoint Depression Visibility Wind Speed Wind Dir Waves Ship Positions

Queen Of Coquitlam

Last reported at 2017-Nov-20 00:30 UTC. Time now 2017-Nov-23 05:41 UTC.
Position N 49°06' W 123°29'.

Length 139 m; draft 4 m.

Type: Passenger vessel. MMSI: 316001249.

Date/timePositionNaut miles runAvg speedWind from/ knotsBaromVisibWave heightAir tempDewpointWater temp
2017-Nov-20 00:30N 49°06' W 123°29'9 0.4
2017-Nov-19 02:59N 49°11' W 123°40'1020.8
2017-Nov-19 02:31N 49°07' W 123°27'1020.5
2017-Nov-19 02:00N 49°01' W 123°14'4 8.1
2017-Nov-19 01:30N 49°00' W 123°08'0 0.5
2017-Nov-19 01:00N 49°00' W 123°08'1019.4
2017-Nov-19 00:30N 49°03' W 123°23'1120.5
2017-Nov-18 23:58N 49°09' W 123°36'6 3.2
2017-Nov-18 22:09N 49°12' W 123°44'320.9
2017-Nov-18 21:59N 49°11' W 123°39'1020.8
2017-Nov-18 21:31N 49°06' W 123°26'1020.6
2017-Nov-18 21:01N 48°60' W 123°14'4 7.4
2017-Nov-18 20:29N 49°00' W 123°08'3 5.3
2017-Nov-18 20:01N 49°00' W 123°12'1019.0
2017-Nov-18 19:30N 49°04' W 123°25'1019.4
2017-Nov-18 19:00N 49°10' W 123°37'6 3.4
2017-Nov-18 17:09N 49°13' W 123°46'320.2
2017-Nov-18 17:00N 49°11' W 123°42'1120.6
2017-Nov-18 16:30N 49°06' W 123°27'1020.4
2017-Nov-18 16:00N 49°01' W 123°14'4 8.2
2017-Nov-18 15:30N 49°00' W 123°08'3 6.2
2017-Nov-18 15:01N 48°60' W 123°12'1019.8
2017-Nov-18 14:30N 49°04' W 123°26'1020.0
2017-Nov-18 14:00N 49°10' W 123°39'6 1.0
2017-Nov-18 08:09N 49°13' W 123°46'421.0
2017-Nov-18 07:57N 49°11' W 123°41'1020.9
2017-Nov-18 07:30N 49°07' W 123°28'1020.8
2017-Nov-18 07:00N 49°01' W 123°15'5 9.3
2017-Nov-18 06:30N 49°00' W 123°08'0 0.9
2017-Nov-18 06:00N 49°00' W 123°09'1020.3
2017-Nov-18 05:30N 49°03' W 123°24'1121.0
2017-Nov-18 04:59N 49°09' W 123°37'6 3.6
2017-Nov-18 03:14N 49°13' W 123°45'520.1
2017-Nov-18 02:59N 49°10' W 123°38'1020.4
2017-Nov-18 02:30N 49°06' W 123°25'1019.5
2017-Nov-18 02:00N 49°00' W 123°13'3 6.4
2017-Nov-18 01:30N 49°00' W 123°08'1 2.0
2017-Nov-18 01:00N 48°60' W 123°09'1019.7
2017-Nov-18 00:30N 49°03' W 123°24'1120.6
2017-Nov-17 23:58N 49°09' W 123°37'6 3.5
2017-Nov-17 22:12N 49°13' W 123°45'420.3
2017-Nov-17 21:59N 49°11' W 123°39'1020.4
2017-Nov-17 21:30N 49°07' W 123°26'1020.5
2017-Nov-17 21:00N 49°00' W 123°14'4 7.9
2017-Nov-17 20:31N 49°00' W 123°08'1 2.2
2017-Nov-17 20:00N 48°60' W 123°09'1019.5
2017-Nov-17 19:30N 49°03' W 123°24'1020.2
2017-Nov-17 19:00N 49°09' W 123°36'6 3.5
2017-Nov-17 17:11N 49°12' W 123°44'420.4
2017-Nov-17 16:59N 49°10' W 123°39'1020.3
2017-Nov-17 16:30N 49°06' W 123°26'1020.0
2017-Nov-17 16:00N 49°00' W 123°13'3 6.4
2017-Nov-17 15:30N 49°00' W 123°08'4 8.5
2017-Nov-17 15:00N 48°60' W 123°15'1019.9
2017-Nov-17 14:30N 49°05' W 123°28'1020.4
2017-Nov-17 14:00N 49°11' W 123°40'6 1.0
2017-Nov-17 08:17N 49°13' W 123°48'620.5
2017-Nov-17 07:58N 49°11' W 123°39'1020.9
2017-Nov-17 07:29N 49°06' W 123°25'1020.7
2017-Nov-17 07:00N 49°00' W 123°13'3 6.2
2017-Nov-17 06:30N 49°00' W 123°08'1 3.0
2017-Nov-17 06:00N 49°00' W 123°10'1020.5
2017-Nov-17 05:30N 49°04' W 123°25'1120.8
2017-Nov-17 05:00N 49°10' W 123°38'4 1.9
2017-Nov-17 03:08N 49°12' W 123°42'320.7
2017-Nov-17 02:59N 49°10' W 123°38'1020.5
2017-Nov-17 02:30N 49°06' W 123°25'1020.1
2017-Nov-17 02:00N 49°00' W 123°12'3 6.0
2017-Nov-17 01:30N 49°00' W 123°08'5 9.2
2017-Nov-17 01:00N 49°00' W 123°15'1120.7
2017-Nov-17 00:28N 49°06' W 123°30'1020.7
2017-Nov-17 00:00N 49°11' W 123°42'6 3.3
2017-Nov-16 22:15N 49°13' W 123°51'520.4
2017-Nov-16 21:59N 49°12' W 123°43'1021.7
2017-Nov-16 21:30N 49°07' W 123°28'1121.9
2017-Nov-16 21:00N 49°01' W 123°14'4 8.5
2017-Nov-16 20:30N 49°00' W 123°08'2 3.9
2017-Nov-16 20:00N 48°60' W 123°11'1019.8
2017-Nov-16 19:30N 49°04' W 123°25'1020.5
2017-Nov-16 19:00N 49°10' W 123°37'7 3.9
2017-Nov-16 17:14N 49°13' W 123°47'520.7
2017-Nov-16 16:59N 49°11' W 123°40'1021.2
2017-Nov-16 16:30N 49°06' W 123°26'1020.9
2017-Nov-16 16:00N 49°01' W 123°12'3 5.4
2017-Nov-16 15:30N 49°00' W 123°08'4 7.1
2017-Nov-16 15:00N 49°00' W 123°13'1020.3
2017-Nov-16 14:30N 49°05' W 123°27'1020.8
2017-Nov-16 14:00N 49°11' W 123°40'9 1.9
2017-Nov-16 09:21N 49°12' W 123°53'618.5
2017-Nov-16 09:00N 49°13' W 123°43'1120.9
2017-Nov-16 08:29N 49°08' W 123°29'1021.3
2017-Nov-16 08:00N 49°02' W 123°16'610.5
2017-Nov-16 07:28N 49°00' W 123°08'0 0.0
2017-Nov-16 07:00N 49°00' W 123°08'510.1
2017-Nov-16 06:30N 49°00' W 123°15'1019.5
2017-Nov-16 06:01N 49°05' W 123°28'14 6.6
2017-Nov-16 03:56N 49°13' W 123°46'920.3
2017-Nov-16 03:30N 49°09' W 123°34'1020.2
2017-Nov-16 03:00N 49°04' W 123°21'918.3
2017-Nov-16 02:30N 49°00' W 123°08'0 0.2
2017-Nov-16 02:00N 49°00' W 123°08'714.1
2017-Nov-16 01:29N 49°01' W 123°19'1020.5
2017-Nov-16 01:00N 49°07' W 123°31'1019.9
2017-Nov-16 00:30N 49°12' W 123°44'1 0.8
2017-Nov-15 22:54N 49°13' W 123°45'820.5
2017-Nov-15 22:30N 49°10' W 123°34'1121.4
2017-Nov-15 21:59N 49°04' W 123°20'817.1
2017-Nov-15 21:30N 49°00' W 123°08'1 2.4
2017-Nov-15 21:00N 48°60' W 123°10'918.8
2017-Nov-15 20:30N 49°03' W 123°23'1019.7
2017-Nov-15 20:00N 49°09' W 123°36'8 5.0
2017-Nov-15 18:21N 49°13' W 123°47'721.2
2017-Nov-15 18:00N 49°10' W 123°36'1021.1
2017-Nov-15 17:31N 49°05' W 123°23'1020.7
2017-Nov-15 17:01N 49°00' W 123°09'1 1.1
2017-Nov-15 16:29N 49°00' W 123°08'613.0
2017-Nov-15 16:00N 49°01' W 123°18'1020.3
2017-Nov-15 15:31N 49°06' W 123°30'1120.3
2017-Nov-15 14:58N 49°12' W 123°45'3 0.4
2017-Nov-15 08:15N 49°13' W 123°48'520.8
2017-Nov-15 07:59N 49°11' W 123°40'715.5
2017-Nov-15 07:30N 49°16' W 123°31'917.8
2017-Nov-15 07:00N 49°21' W 123°20'3 4.5
2017-Nov-15 06:22N 49°23' W 123°16'0 0.3
2017-Nov-15 05:57N 49°23' W 123°16'511.4
2017-Nov-15 05:30N 49°19' W 123°22'919.0
2017-Nov-15 05:00N 49°16' W 123°36'7 4.3
2017-Nov-15 03:19N 49°13' W 123°46'620.2
2017-Nov-15 03:00N 49°10' W 123°37'1020.2
2017-Nov-15 02:31N 49°05' W 123°24'1119.4
2017-Nov-15 01:58N 49°00' W 123°10'1 2.8
2017-Nov-15 01:30N 49°00' W 123°08'611.4
2017-Nov-15 00:59N 49°00' W 123°17'919.6
2017-Nov-15 00:31N 49°05' W 123°28'1019.6
2017-Nov-15 00:01N 49°11' W 123°41'4 2.3
2017-Nov-14 22:23N 49°13' W 123°46'821.0
2017-Nov-14 22:00N 49°09' W 123°35'1021.1
2017-Nov-14 21:30N 49°04' W 123°21'816.9
2017-Nov-14 21:00N 49°00' W 123°10'1 2.4
2017-Nov-14 20:30N 49°00' W 123°08'4 7.4
2017-Nov-14 20:00N 49°00' W 123°14'918.3
2017-Nov-14 19:30N 49°04' W 123°26'1019.0
2017-Nov-14 18:58N 49°10' W 123°39'8 5.1
2017-Nov-14 17:28N 49°13' W 123°50'920.8
2017-Nov-14 17:00N 49°10' W 123°36'1121.8
2017-Nov-14 16:30N 49°05' W 123°22'1019.6
2017-Nov-14 16:00N 49°00' W 123°08'0 0.5
2017-Nov-14 15:30N 49°00' W 123°08'815.2
2017-Nov-14 15:00N 49°01' W 123°20'1019.4
2017-Nov-14 14:30N 49°07' W 123°32'13 2.5
2017-Nov-14 09:10N 49°13' W 123°50'420.2
2017-Nov-14 08:57N 49°12' W 123°44'920.9
2017-Nov-14 08:30N 49°08' W 123°31'1020.9
2017-Nov-14 08:00N 49°02' W 123°18'713.0
2017-Nov-14 07:30N 49°00' W 123°08'4 7.9
2017-Nov-14 06:59N 49°00' W 123°14'1019.9
2017-Nov-14 06:30N 49°05' W 123°27'1019.9
2017-Nov-14 06:00N 49°10' W 123°39'6 3.3
2017-Nov-14 04:12N 49°13' W 123°47'419.8
2017-Nov-14 03:59N 49°12' W 123°41'1020.1
2017-Nov-14 03:30N 49°08' W 123°28'1019.5
2017-Nov-14 03:00N 49°02' W 123°16'510.5
2017-Nov-14 02:30N 49°00' W 123°08'0 0.0
2017-Nov-14 01:59N 49°00' W 123°08'4 7.2
2017-Nov-14 01:27N 49°00' W 123°14'818.8
2017-Nov-14 01:00N 49°04' W 123°25'1019.1
2017-Nov-14 00:30N 49°10' W 123°37'  
2017-Nov-11 04:26N 49°14' W 123°53'713.0
2017-Nov-11 03:55N 49°20' W 123°49'4 8.0
2017-Nov-11 03:27N 49°16' W 123°51'4 7.3
2017-Nov-11 02:58N 49°19' W 123°48'4 8.9
2017-Nov-11 02:30N 49°21' W 123°43'1119.6
2017-Nov-11 01:57N 49°11' W 123°37'920.7
2017-Nov-11 01:30N 49°06' W 123°25'815.8
2017-Nov-11 01:00N 49°01' W 123°15'1019.5
2017-Nov-11 00:31N 48°54' W 123°05'814.8
2017-Nov-10 23:59N 48°47' W 123°00'816.8
2017-Nov-10 23:30N 48°43' W 123°10'5 6.1
2017-Nov-10 22:37N 48°42' W 123°18'110.6
2017-Nov-10 22:30N 48°42' W 123°17'3 5.4
2017-Nov-10 21:57N 48°43' W 123°21'3 5.8
2017-Nov-10 21:30N 48°42' W 123°18'817.2
2017-Nov-10 21:00N 48°34' W 123°12'611.8
2017-Nov-10 20:30N 48°28' W 123°09'4 7.2
2017-Nov-10 20:00N 48°25' W 123°10'2 4.6
2017-Nov-10 19:30N 48°23' W 123°12'3 6.4
2017-Nov-10 19:00N 48°22' W 123°17'712.9
2017-Nov-10 18:30N 48°25' W 123°26'  
Track history (hours):
 
Tides and Currents Weather Stations Pressure Air Temp Water Temp Dewpoint Dewpoint Depression Visibility Wind Speed Wind Dir Waves Ship Positions

Queen Of Coquitlam

Last reported at 2017-Nov-20 00:30 UTC. Time now 2017-Nov-23 05:41 UTC.
Position N 49°06' W 123°29'.

Length 139 m; draft 4 m.

Type: Passenger vessel. MMSI: 316001249.

Date/timePositionNaut miles runAvg speedWind from/ knotsBaromVisibWave heightAir tempDewpointWater temp
2017-Nov-20 00:30N 49°06' W 123°29'9 0.4
2017-Nov-19 02:59N 49°11' W 123°40'1020.8
2017-Nov-19 02:31N 49°07' W 123°27'1020.5
2017-Nov-19 02:00N 49°01' W 123°14'4 8.1
2017-Nov-19 01:30N 49°00' W 123°08'0 0.5
2017-Nov-19 01:00N 49°00' W 123°08'1019.4
2017-Nov-19 00:30N 49°03' W 123°23'1120.5
2017-Nov-18 23:58N 49°09' W 123°36'6 3.2
2017-Nov-18 22:09N 49°12' W 123°44'320.9
2017-Nov-18 21:59N 49°11' W 123°39'1020.8
2017-Nov-18 21:31N 49°06' W 123°26'1020.6
2017-Nov-18 21:01N 48°60' W 123°14'4 7.4
2017-Nov-18 20:29N 49°00' W 123°08'3 5.3
2017-Nov-18 20:01N 49°00' W 123°12'1019.0
2017-Nov-18 19:30N 49°04' W 123°25'1019.4
2017-Nov-18 19:00N 49°10' W 123°37'6 3.4
2017-Nov-18 17:09N 49°13' W 123°46'320.2
2017-Nov-18 17:00N 49°11' W 123°42'1120.6
2017-Nov-18 16:30N 49°06' W 123°27'1020.4
2017-Nov-18 16:00N 49°01' W 123°14'4 8.2
2017-Nov-18 15:30N 49°00' W 123°08'3 6.2
2017-Nov-18 15:01N 48°60' W 123°12'1019.8
2017-Nov-18 14:30N 49°04' W 123°26'1020.0
2017-Nov-18 14:00N 49°10' W 123°39'6 1.0
2017-Nov-18 08:09N 49°13' W 123°46'421.0
2017-Nov-18 07:57N 49°11' W 123°41'1020.9
2017-Nov-18 07:30N 49°07' W 123°28'1020.8
2017-Nov-18 07:00N 49°01' W 123°15'5 9.3
2017-Nov-18 06:30N 49°00' W 123°08'0 0.9
2017-Nov-18 06:00N 49°00' W 123°09'1020.3
2017-Nov-18 05:30N 49°03' W 123°24'1121.0
2017-Nov-18 04:59N 49°09' W 123°37'6 3.6
2017-Nov-18 03:14N 49°13' W 123°45'520.1
2017-Nov-18 02:59N 49°10' W 123°38'1020.4
2017-Nov-18 02:30N 49°06' W 123°25'1019.5
2017-Nov-18 02:00N 49°00' W 123°13'3 6.4
2017-Nov-18 01:30N 49°00' W 123°08'1 2.0
2017-Nov-18 01:00N 48°60' W 123°09'1019.7
2017-Nov-18 00:30N 49°03' W 123°24'1120.6
2017-Nov-17 23:58N 49°09' W 123°37'6 3.5
2017-Nov-17 22:12N 49°13' W 123°45'420.3
2017-Nov-17 21:59N 49°11' W 123°39'1020.4
2017-Nov-17 21:30N 49°07' W 123°26'1020.5
2017-Nov-17 21:00N 49°00' W 123°14'4 7.9
2017-Nov-17 20:31N 49°00' W 123°08'1 2.2
2017-Nov-17 20:00N 48°60' W 123°09'1019.5
2017-Nov-17 19:30N 49°03' W 123°24'1020.2
2017-Nov-17 19:00N 49°09' W 123°36'6 3.5
2017-Nov-17 17:11N 49°12' W 123°44'420.4
2017-Nov-17 16:59N 49°10' W 123°39'1020.3
2017-Nov-17 16:30N 49°06' W 123°26'1020.0
2017-Nov-17 16:00N 49°00' W 123°13'3 6.4
2017-Nov-17 15:30N 49°00' W 123°08'4 8.5
2017-Nov-17 15:00N 48°60' W 123°15'1019.9
2017-Nov-17 14:30N 49°05' W 123°28'1020.4
2017-Nov-17 14:00N 49°11' W 123°40'6 1.0
2017-Nov-17 08:17N 49°13' W 123°48'620.5
2017-Nov-17 07:58N 49°11' W 123°39'1020.9
2017-Nov-17 07:29N 49°06' W 123°25'1020.7
2017-Nov-17 07:00N 49°00' W 123°13'3 6.2
2017-Nov-17 06:30N 49°00' W 123°08'1 3.0
2017-Nov-17 06:00N 49°00' W 123°10'1020.5
2017-Nov-17 05:30N 49°04' W 123°25'1120.8
2017-Nov-17 05:00N 49°10' W 123°38'4 1.9
2017-Nov-17 03:08N 49°12' W 123°42'320.7
2017-Nov-17 02:59N 49°10' W 123°38'1020.5
2017-Nov-17 02:30N 49°06' W 123°25'1020.1
2017-Nov-17 02:00N 49°00' W 123°12'3 6.0
2017-Nov-17 01:30N 49°00' W 123°08'5 9.2
2017-Nov-17 01:00N 49°00' W 123°15'1120.7
2017-Nov-17 00:28N 49°06' W 123°30'1020.7
2017-Nov-17 00:00N 49°11' W 123°42'6 3.3
2017-Nov-16 22:15N 49°13' W 123°51'520.4
2017-Nov-16 21:59N 49°12' W 123°43'1021.7
2017-Nov-16 21:30N 49°07' W 123°28'1121.9
2017-Nov-16 21:00N 49°01' W 123°14'4 8.5
2017-Nov-16 20:30N 49°00' W 123°08'2 3.9
2017-Nov-16 20:00N 48°60' W 123°11'1019.8
2017-Nov-16 19:30N 49°04' W 123°25'1020.5
2017-Nov-16 19:00N 49°10' W 123°37'7 3.9
2017-Nov-16 17:14N 49°13' W 123°47'520.7
2017-Nov-16 16:59N 49°11' W 123°40'1021.2
2017-Nov-16 16:30N 49°06' W 123°26'1020.9
2017-Nov-16 16:00N 49°01' W 123°12'3 5.4
2017-Nov-16 15:30N 49°00' W 123°08'4 7.1
2017-Nov-16 15:00N 49°00' W 123°13'1020.3
2017-Nov-16 14:30N 49°05' W 123°27'1020.8
2017-Nov-16 14:00N 49°11' W 123°40'9 1.9
2017-Nov-16 09:21N 49°12' W 123°53'618.5
2017-Nov-16 09:00N 49°13' W 123°43'1120.9
2017-Nov-16 08:29N 49°08' W 123°29'1021.3
2017-Nov-16 08:00N 49°02' W 123°16'610.5
2017-Nov-16 07:28N 49°00' W 123°08'0 0.0
2017-Nov-16 07:00N 49°00' W 123°08'510.1
2017-Nov-16 06:30N 49°00' W 123°15'1019.5
2017-Nov-16 06:01N 49°05' W 123°28'14 6.6
2017-Nov-16 03:56N 49°13' W 123°46'920.3
2017-Nov-16 03:30N 49°09' W 123°34'1020.2
2017-Nov-16 03:00N 49°04' W 123°21'918.3
2017-Nov-16 02:30N 49°00' W 123°08'0 0.2
2017-Nov-16 02:00N 49°00' W 123°08'714.1
2017-Nov-16 01:29N 49°01' W 123°19'1020.5
2017-Nov-16 01:00N 49°07' W 123°31'1019.9
2017-Nov-16 00:30N 49°12' W 123°44'1 0.8
2017-Nov-15 22:54N 49°13' W 123°45'820.5
2017-Nov-15 22:30N 49°10' W 123°34'1121.4
2017-Nov-15 21:59N 49°04' W 123°20'817.1
2017-Nov-15 21:30N 49°00' W 123°08'1 2.4
2017-Nov-15 21:00N 48°60' W 123°10'918.8
2017-Nov-15 20:30N 49°03' W 123°23'1019.7
2017-Nov-15 20:00N 49°09' W 123°36'8 5.0
2017-Nov-15 18:21N 49°13' W 123°47'721.2
2017-Nov-15 18:00N 49°10' W 123°36'1021.1
2017-Nov-15 17:31N 49°05' W 123°23'1020.7
2017-Nov-15 17:01N 49°00' W 123°09'1 1.1
2017-Nov-15 16:29N 49°00' W 123°08'613.0
2017-Nov-15 16:00N 49°01' W 123°18'1020.3
2017-Nov-15 15:31N 49°06' W 123°30'1120.3
2017-Nov-15 14:58N 49°12' W 123°45'3 0.4
2017-Nov-15 08:15N 49°13' W 123°48'520.8
2017-Nov-15 07:59N 49°11' W 123°40'715.5
2017-Nov-15 07:30N 49°16' W 123°31'917.8
2017-Nov-15 07:00N 49°21' W 123°20'3 4.5
2017-Nov-15 06:22N 49°23' W 123°16'0 0.3
2017-Nov-15 05:57N 49°23' W 123°16'511.4
2017-Nov-15 05:30N 49°19' W 123°22'919.0
2017-Nov-15 05:00N 49°16' W 123°36'7 4.3
2017-Nov-15 03:19N 49°13' W 123°46'620.2
2017-Nov-15 03:00N 49°10' W 123°37'1020.2
2017-Nov-15 02:31N 49°05' W 123°24'1119.4
2017-Nov-15 01:58N 49°00' W 123°10'1 2.8
2017-Nov-15 01:30N 49°00' W 123°08'611.4
2017-Nov-15 00:59N 49°00' W 123°17'919.6
2017-Nov-15 00:31N 49°05' W 123°28'1019.6
2017-Nov-15 00:01N 49°11' W 123°41'4 2.3
2017-Nov-14 22:23N 49°13' W 123°46'821.0
2017-Nov-14 22:00N 49°09' W 123°35'1021.1
2017-Nov-14 21:30N 49°04' W 123°21'816.9
2017-Nov-14 21:00N 49°00' W 123°10'1 2.4
2017-Nov-14 20:30N 49°00' W 123°08'4 7.4
2017-Nov-14 20:00N 49°00' W 123°14'918.3
2017-Nov-14 19:30N 49°04' W 123°26'1019.0
2017-Nov-14 18:58N 49°10' W 123°39'8 5.1
2017-Nov-14 17:28N 49°13' W 123°50'920.8
2017-Nov-14 17:00N 49°10' W 123°36'1121.8
2017-Nov-14 16:30N 49°05' W 123°22'1019.6
2017-Nov-14 16:00N 49°00' W 123°08'0 0.5
2017-Nov-14 15:30N 49°00' W 123°08'815.2
2017-Nov-14 15:00N 49°01' W 123°20'1019.4
2017-Nov-14 14:30N 49°07' W 123°32'13 2.5
2017-Nov-14 09:10N 49°13' W 123°50'420.2
2017-Nov-14 08:57N 49°12' W 123°44'920.9
2017-Nov-14 08:30N 49°08' W 123°31'1020.9
2017-Nov-14 08:00N 49°02' W 123°18'713.0
2017-Nov-14 07:30N 49°00' W 123°08'4 7.9
2017-Nov-14 06:59N 49°00' W 123°14'1019.9
2017-Nov-14 06:30N 49°05' W 123°27'1019.9
2017-Nov-14 06:00N 49°10' W 123°39'6 3.3
2017-Nov-14 04:12N 49°13' W 123°47'419.8
2017-Nov-14 03:59N 49°12' W 123°41'1020.1
2017-Nov-14 03:30N 49°08' W 123°28'1019.5
2017-Nov-14 03:00N 49°02' W 123°16'510.5
2017-Nov-14 02:30N 49°00' W 123°08'0 0.0
2017-Nov-14 01:59N 49°00' W 123°08'4 7.2
2017-Nov-14 01:27N 49°00' W 123°14'818.8
2017-Nov-14 01:00N 49°04' W 123°25'1019.1
2017-Nov-14 00:30N 49°10' W 123°37'  
2017-Nov-11 04:26N 49°14' W 123°53'713.0
2017-Nov-11 03:55N 49°20' W 123°49'4 8.0
2017-Nov-11 03:27N 49°16' W 123°51'4 7.3
2017-Nov-11 02:58N 49°19' W 123°48'4 8.9
2017-Nov-11 02:30N 49°21' W 123°43'1119.6
2017-Nov-11 01:57N 49°11' W 123°37'920.7
2017-Nov-11 01:30N 49°06' W 123°25'815.8
2017-Nov-11 01:00N 49°01' W 123°15'1019.5
2017-Nov-11 00:31N 48°54' W 123°05'814.8
2017-Nov-10 23:59N 48°47' W 123°00'816.8
2017-Nov-10 23:30N 48°43' W 123°10'5 6.1
2017-Nov-10 22:37N 48°42' W 123°18'110.6
2017-Nov-10 22:30N 48°42' W 123°17'3 5.4
2017-Nov-10 21:57N 48°43' W 123°21'3 5.8
2017-Nov-10 21:30N 48°42' W 123°18'817.2
2017-Nov-10 21:00N 48°34' W 123°12'611.8
2017-Nov-10 20:30N 48°28' W 123°09'4 7.2
2017-Nov-10 20:00N 48°25' W 123°10'2 4.6
2017-Nov-10 19:30N 48°23' W 123°12'3 6.4
2017-Nov-10 19:00N 48°22' W 123°17'712.9
2017-Nov-10 18:30N 48°25' W 123°26'  

Dump ship's entire track history